Terminal Aerodrome Forecast
Issued by NWS

Home | Current Version | Previous Version | Text Only | Print | Product List | Glossary On
Versions: 1 2 3 4 5 6 7 8 9 10 11 12 13 14
000
FTUS41 KAKQ 301100
TAFPHF
TAF
KPHF 301128Z 3012/3112 13005KT P6SM SCT025 BKN045
     FM301500 14008KT P6SM SCT035
     FM310000 17005KT P6SM BKN250=

USA.gov is the U.S. government's official web portal to all federal, state and local government web resources and services.